Aérodrome :
LOGIN :

S'inscrire | Disclaimer

   EN    FR    IT 

 










Légende :    VFR   VFR Marginal   IFR   IFR Intensif   IFR Très Intensif
Visi : 
Plafond : 
>= 8 km
>= 3000ft
5 à 8 km
1000 à 3000 ft
1500m à 5 km
500 à 1000 ft
800 à 1500m
200 à 500 ft
< 800m
< 200 ft
Symboles :   Orages  Brouillard  Fortes neiges  Fortes précipitations  Vent > 20 kt
SIGMETs :   Divers  Orages  Givrage  Turbulence  Onde Orograph.  Cendres Volcan.







- Altitude de l'aérodrome : 257 ft
- Code IATA : MAN
- Voir les cartes d'approche


EGCC - Manchester

DERNIER METAR :
  • 151350Z 25004KT 9999 BKN017 15/12 Q1024 NOSIG

METARs EXPIRÉS :
  • 151320Z 24004KT 9999 VCSH BKN018 15/12 Q1024
  • 151250Z 25004KT 9999 FEW016 BKN023 15/12 Q1024
  • 151220Z 27006KT 9999 FEW015 BKN024 15/12 Q1024 NOSIG
  • 151150Z 27005KT 9999 FEW016 BKN024 15/12 Q1024
  • 151120Z 24006KT 9999 FEW012 BKN022 14/12 Q1024 TEMPO BKN012

TAF TAF EGCC
Valide du 15 à 12h jusqu'au 16 à 18h UTC


151057Z 1512/1618 29007KT 9999 FEW006 BKN015
TEMPO 1512/1612 4000 RA -RADZ BKN006
PROB40
TEMPO 1516/1610 RADZ BKN003
ATIS : +44 161 499 2324
Pas de NOTAMs connus pour ce terrain.



MET'MAP, la Météo Aéronautique d'un coup d'oeil ! - Copyright ORBIFLY Décembre 2007 - Disclaimer

ORBIFLY MET'MAP TEAM :

Programmation & Développement : Alexandra Zaïnal
Conception & Développement : Baudouin d'Aumeries
Co-Programmation & Développement : Marc-Olivier Méhu
Soutien technique & logistique : Manuel Goepfert

Contact : metmap@orbifly.com




SOURCES & CREDITS :

   NOAA